createdAt,value
2022-12-03T00:00:22.973Z,1005.48
2022-12-03T00:01:23.011Z,1005.51
2022-12-03T00:02:23.121Z,1005.48
2022-12-03T00:03:23.093Z,1005.45
2022-12-03T00:04:22.930Z,1005.48
2022-12-03T00:05:22.903Z,1005.48
2022-12-03T00:06:22.891Z,1005.48
2022-12-03T00:07:23.163Z,1005.48
2022-12-03T00:08:22.873Z,1005.51
2022-12-03T00:09:22.874Z,1005.42
2022-12-03T00:10:22.841Z,1005.46
2022-12-03T00:11:22.849Z,1005.47
2022-12-03T00:12:22.817Z,1005.43
2022-12-03T00:13:22.802Z,1005.48
2022-12-03T00:14:22.809Z,1005.45
2022-12-03T00:15:22.777Z,1005.43
2022-12-03T00:16:22.907Z,1005.42
2022-12-03T00:17:22.764Z,1005.46
2022-12-03T00:18:22.741Z,1005.43
2022-12-03T00:19:22.750Z,1005.41
2022-12-03T00:20:22.715Z,1005.37
2022-12-03T00:21:24.606Z,1005.39
2022-12-03T00:22:22.688Z,1005.42
2022-12-03T00:23:22.676Z,1005.38
2022-12-03T00:24:22.680Z,1005.36
2022-12-03T00:25:22.656Z,1005.40
2022-12-03T00:26:22.642Z,1005.42
2022-12-03T00:27:22.643Z,1005.39
2022-12-03T00:28:22.617Z,1005.37
2022-12-03T00:29:22.614Z,1005.43
2022-12-03T00:30:22.588Z,1005.39
2022-12-03T00:31:22.652Z,1005.39
2022-12-03T00:32:22.566Z,1005.39
2022-12-03T00:33:22.553Z,1005.39
2022-12-03T00:34:22.555Z,1005.40
2022-12-03T00:35:22.527Z,1005.41
2022-12-03T00:36:22.510Z,1005.39
2022-12-03T00:37:22.502Z,1005.46
2022-12-03T00:38:22.488Z,1005.47
2022-12-03T00:39:22.488Z,1005.40
2022-12-03T00:40:22.464Z,1005.46
2022-12-03T00:41:22.445Z,1005.44
2022-12-03T00:42:22.443Z,1005.46
2022-12-03T00:43:22.446Z,1005.41
2022-12-03T00:44:22.428Z,1005.44
2022-12-03T00:45:22.395Z,1005.46
2022-12-03T00:46:22.432Z,1005.38
2022-12-03T00:47:22.373Z,1005.38
2022-12-03T00:48:22.361Z,1005.45
2022-12-03T00:49:22.360Z,1005.42
2022-12-03T00:50:22.332Z,1005.37
2022-12-03T00:51:22.318Z,1005.38
2022-12-03T00:52:22.307Z,1005.42
2022-12-03T00:53:22.299Z,1005.47
2022-12-03T00:54:25.631Z,1005.40
2022-12-03T00:55:22.274Z,1005.37
2022-12-03T00:56:22.260Z,1005.40
2022-12-03T00:57:22.248Z,1005.43
2022-12-03T00:58:22.233Z,1005.38
2022-12-03T00:59:22.255Z,1005.40
2022-12-03T01:00:22.209Z,1005.39
2022-12-03T01:01:22.308Z,1005.40
2022-12-03T01:02:22.261Z,1005.44
2022-12-03T01:03:22.165Z,1005.39
2022-12-03T01:04:22.283Z,1005.40
2022-12-03T01:05:22.151Z,1005.46
2022-12-03T01:06:22.140Z,1005.44
2022-12-03T01:07:22.114Z,1005.45
2022-12-03T01:08:22.106Z,1005.41
2022-12-03T01:09:22.110Z,1005.43
2022-12-03T01:10:22.079Z,1005.46
2022-12-03T01:11:22.065Z,1005.42
2022-12-03T01:12:22.055Z,1005.48
2022-12-03T01:13:22.045Z,1005.48
2022-12-03T01:14:22.050Z,1005.47
2022-12-03T01:15:22.042Z,1005.42
2022-12-03T01:16:22.111Z,1005.51
2022-12-03T01:17:21.993Z,1005.50
2022-12-03T01:18:21.980Z,1005.51
2022-12-03T01:19:22.009Z,1005.52
2022-12-03T01:20:21.995Z,1005.50
2022-12-03T01:21:21.941Z,1005.51
2022-12-03T01:22:21.924Z,1005.52
2022-12-03T01:23:21.920Z,1005.53
2022-12-03T01:24:21.906Z,1005.52
2022-12-03T01:25:21.931Z,1005.49
2022-12-03T01:26:21.897Z,1005.51
2022-12-03T01:27:21.882Z,1005.49
2022-12-03T01:28:21.858Z,1005.52
2022-12-03T01:29:21.836Z,1005.52
2022-12-03T01:30:21.841Z,1005.51
2022-12-03T01:31:21.910Z,1005.51
2022-12-03T01:32:21.806Z,1005.53
2022-12-03T01:33:21.791Z,1005.57
2022-12-03T01:34:21.772Z,1005.58
2022-12-03T01:35:21.777Z,1005.54
2022-12-03T01:36:21.746Z,1005.56
2022-12-03T01:37:21.738Z,1005.59
2022-12-03T01:38:21.723Z,1005.57
2022-12-03T01:39:21.720Z,1005.56
2022-12-03T01:40:21.719Z,1005.59
2022-12-03T01:41:21.686Z,1005.55
2022-12-03T01:42:21.671Z,1005.56
2022-12-03T01:43:21.658Z,1005.60
2022-12-03T01:44:21.647Z,1005.55
2022-12-03T01:45:21.651Z,1005.53
2022-12-03T01:46:21.694Z,1005.54
2022-12-03T01:47:21.627Z,1005.51
2022-12-03T01:48:21.596Z,1005.57
2022-12-03T01:49:21.583Z,1005.52
2022-12-03T01:50:21.595Z,1005.54
2022-12-03T01:51:21.560Z,1005.57
2022-12-03T01:52:21.545Z,1005.52
2022-12-03T01:53:21.558Z,1005.53
2022-12-03T01:54:21.528Z,1005.52
2022-12-03T01:55:21.525Z,1005.56
2022-12-03T01:56:21.502Z,1005.49
2022-12-03T01:57:21.505Z,1005.48
2022-12-03T01:58:21.471Z,1005.50
2022-12-03T01:59:21.462Z,1005.56
2022-12-03T02:00:21.456Z,1005.53
2022-12-03T02:01:21.491Z,1005.58
2022-12-03T02:02:21.416Z,1005.59
2022-12-03T02:03:21.429Z,1005.64
2022-12-03T02:04:21.438Z,1005.62
2022-12-03T02:05:21.398Z,1005.59
2022-12-03T02:06:21.374Z,1005.64
2022-12-03T02:07:21.368Z,1005.60
2022-12-03T02:08:21.341Z,1005.54
2022-12-03T02:09:21.329Z,1005.60
2022-12-03T02:10:21.338Z,1005.60
2022-12-03T02:11:21.323Z,1005.62
2022-12-03T02:12:21.293Z,1005.60
2022-12-03T02:13:21.285Z,1005.60
2022-12-03T02:14:21.276Z,1005.59
2022-12-03T02:15:21.267Z,1005.50
2022-12-03T02:16:21.315Z,1005.58
2022-12-03T02:17:21.239Z,1005.61
2022-12-03T02:18:21.219Z,1005.53
2022-12-03T02:19:21.254Z,1005.57
2022-12-03T02:20:21.221Z,1005.58
2022-12-03T02:21:21.181Z,1005.61
2022-12-03T02:22:21.166Z,1005.57
2022-12-03T02:23:21.155Z,1005.64
2022-12-03T02:24:21.147Z,1005.63
2022-12-03T02:25:21.165Z,1005.58
2022-12-03T02:26:21.114Z,1005.59
2022-12-03T02:27:21.114Z,1005.56
2022-12-03T02:28:21.090Z,1005.58
2022-12-03T02:29:21.078Z,1005.58
2022-12-03T02:30:21.080Z,1005.59
2022-12-03T02:31:21.098Z,1005.56
2022-12-03T02:32:21.053Z,1005.58
2022-12-03T02:33:21.027Z,1005.56
2022-12-03T02:34:21.011Z,1005.58
2022-12-03T02:35:21.041Z,1005.56
2022-12-03T02:36:20.988Z,1005.56
2022-12-03T02:37:20.978Z,1005.55
2022-12-03T02:38:20.965Z,1005.51
2022-12-03T02:39:20.950Z,1005.53
2022-12-03T02:40:20.955Z,1005.54
2022-12-03T02:41:20.930Z,1005.47
2022-12-03T02:42:20.910Z,1005.48
2022-12-03T02:43:20.899Z,1005.49
2022-12-03T02:44:20.887Z,1005.50
2022-12-03T02:45:20.878Z,1005.49
2022-12-03T02:46:20.920Z,1005.49
2022-12-03T02:47:20.849Z,1005.54
2022-12-03T02:48:20.836Z,1005.50
2022-12-03T02:49:20.826Z,1005.47
2022-12-03T02:50:20.812Z,1005.57
2022-12-03T02:51:20.863Z,1005.49
2022-12-03T02:52:20.790Z,1005.45
2022-12-03T02:53:20.806Z,1005.47
2022-12-03T02:54:20.761Z,1005.46
2022-12-03T02:55:21.619Z,1005.42
2022-12-03T02:56:20.748Z,1005.43
2022-12-03T02:57:20.727Z,1005.44
2022-12-03T02:58:20.712Z,1005.42
2022-12-03T02:59:20.698Z,1005.48
2022-12-03T03:00:20.687Z,1005.53
2022-12-03T03:01:20.751Z,1005.45
2022-12-03T03:02:20.686Z,1005.42
2022-12-03T03:03:20.651Z,1005.43
2022-12-03T03:04:20.635Z,1005.43
2022-12-03T03:05:20.626Z,1005.48
2022-12-03T03:06:20.630Z,1005.44
2022-12-03T03:07:20.619Z,1005.42
2022-12-03T03:08:20.642Z,1005.45
2022-12-03T03:09:20.601Z,1005.46
2022-12-03T03:10:20.563Z,1005.36
2022-12-03T03:11:20.572Z,1005.44
2022-12-03T03:12:20.538Z,1005.42
2022-12-03T03:13:20.529Z,1005.43
2022-12-03T03:14:20.515Z,1005.43
2022-12-03T03:15:20.504Z,1005.44
2022-12-03T03:16:20.568Z,1005.48
2022-12-03T03:17:20.478Z,1005.49
2022-12-03T03:18:20.462Z,1005.44
2022-12-03T03:19:20.448Z,1005.46
2022-12-03T03:20:20.436Z,1005.49
2022-12-03T03:21:20.447Z,1005.47
2022-12-03T03:22:20.411Z,1005.46
2022-12-03T03:23:20.420Z,1005.44
2022-12-03T03:24:20.392Z,1005.48
2022-12-03T03:25:20.397Z,1005.49
2022-12-03T03:26:20.381Z,1005.45
2022-12-03T03:27:20.353Z,1005.53
2022-12-03T03:28:20.335Z,1005.51
2022-12-03T03:29:20.324Z,1005.48
2022-12-03T03:30:20.316Z,1005.50
2022-12-03T03:31:20.352Z,1005.50
2022-12-03T03:32:20.284Z,1005.49
2022-12-03T03:33:20.273Z,1005.44
2022-12-03T03:34:20.261Z,1005.45
2022-12-03T03:35:20.248Z,1005.46
2022-12-03T03:36:20.253Z,1005.42
2022-12-03T03:37:20.225Z,1005.48
2022-12-03T03:38:20.211Z,1005.45
2022-12-03T03:39:20.222Z,1005.49
2022-12-03T03:40:20.191Z,1005.52
2022-12-03T03:41:20.193Z,1005.42
2022-12-03T03:42:20.169Z,1005.48
2022-12-03T03:43:20.155Z,1005.49
2022-12-03T03:44:20.139Z,1005.48
2022-12-03T03:45:24.150Z,1005.49
2022-12-03T03:46:20.261Z,1005.44
2022-12-03T03:47:20.104Z,1005.42
2022-12-03T03:48:20.089Z,1005.43
2022-12-03T03:49:20.077Z,1005.43
2022-12-03T03:50:20.061Z,1005.39
2022-12-03T03:51:20.078Z,1005.33
2022-12-03T03:52:20.045Z,1005.39
2022-12-03T03:53:20.038Z,1005.36
2022-12-03T03:54:20.009Z,1005.28
2022-12-03T03:55:20.645Z,1005.31
2022-12-03T03:56:19.995Z,1005.38
2022-12-03T03:57:19.996Z,1005.31
2022-12-03T03:58:19.968Z,1005.25
2022-12-03T03:59:19.950Z,1005.28
2022-12-03T04:00:19.938Z,1005.22
2022-12-03T04:01:20.036Z,1005.24
2022-12-03T04:02:19.928Z,1005.23
2022-12-03T04:03:19.903Z,1005.20
2022-12-03T04:04:19.984Z,1005.25
2022-12-03T04:05:19.873Z,1005.27
2022-12-03T04:06:19.862Z,1005.29
2022-12-03T04:07:19.865Z,1005.23
2022-12-03T04:08:19.837Z,1005.17
2022-12-03T04:09:19.828Z,1005.19
2022-12-03T04:10:19.815Z,1005.23
2022-12-03T04:11:19.819Z,1005.24
2022-12-03T04:12:19.804Z,1005.22
2022-12-03T04:13:19.779Z,1005.19
2022-12-03T04:14:19.762Z,1005.17
2022-12-03T04:15:19.750Z,1005.18
2022-12-03T04:16:19.788Z,1005.14
2022-12-03T04:17:19.749Z,1005.11
2022-12-03T04:18:19.712Z,1005.15
2022-12-03T04:19:19.699Z,1005.13
2022-12-03T04:20:19.685Z,1005.10
2022-12-03T04:21:19.675Z,1005.11
2022-12-03T04:22:19.680Z,1005.07
2022-12-03T04:23:19.688Z,1005.12
2022-12-03T04:24:19.640Z,1005.08
2022-12-03T04:25:19.627Z,1005.08
2022-12-03T04:26:19.614Z,1005.08
2022-12-03T04:27:19.638Z,1005.13
2022-12-03T04:28:19.592Z,1005.09
2022-12-03T04:29:19.572Z,1005.07
2022-12-03T04:30:19.559Z,1005.06
2022-12-03T04:31:19.616Z,1005.08
2022-12-03T04:32:19.557Z,1005.05
2022-12-03T04:33:19.525Z,1005.08
2022-12-03T04:34:19.522Z,1005.07
2022-12-03T04:35:19.576Z,1005.11
2022-12-03T04:36:19.487Z,1005.05
2022-12-03T04:37:19.492Z,1005.08
2022-12-03T04:38:19.458Z,1005.07
2022-12-03T04:39:19.449Z,1005.04
2022-12-03T04:40:19.435Z,1005.03
2022-12-03T04:41:19.424Z,1005.00
2022-12-03T04:42:19.407Z,1005.03
2022-12-03T04:43:19.432Z,1004.99
2022-12-03T04:44:19.386Z,1005.01
2022-12-03T04:45:19.372Z,1005.01
2022-12-03T04:46:19.392Z,1005.00
2022-12-03T04:47:19.347Z,1005.05
2022-12-03T04:48:19.346Z,1005.06
2022-12-03T04:49:19.334Z,1005.03
2022-12-03T04:50:19.308Z,1005.03
2022-12-03T04:51:19.299Z,1005.06
2022-12-03T04:52:19.284Z,1005.07
2022-12-03T04:53:19.289Z,1005.11
2022-12-03T04:54:19.276Z,1005.11
2022-12-03T04:55:19.247Z,1005.06
2022-12-03T04:56:19.236Z,1005.08
2022-12-03T04:57:19.225Z,1005.10
2022-12-03T04:58:19.225Z,1005.09
2022-12-03T04:59:19.223Z,1005.12
2022-12-03T05:00:19.190Z,1005.08
2022-12-03T05:01:19.278Z,1005.05
2022-12-03T05:02:19.308Z,1005.09
2022-12-03T05:03:19.168Z,1005.08
2022-12-03T05:04:19.132Z,1005.09
2022-12-03T05:05:19.130Z,1005.05
2022-12-03T05:06:19.109Z,1005.08
2022-12-03T05:07:19.096Z,1004.99
2022-12-03T05:08:19.186Z,1005.07
2022-12-03T05:09:19.074Z,1005.06
2022-12-03T05:10:19.057Z,1005.05
2022-12-03T05:11:19.061Z,1005.04
2022-12-03T05:12:19.034Z,1005.03
2022-12-03T05:13:19.039Z,1005.02
2022-12-03T05:14:19.104Z,1005.08
2022-12-03T05:15:19.017Z,1005.01
2022-12-03T05:16:19.049Z,1005.04
2022-12-03T05:17:18.970Z,1005.01
2022-12-03T05:18:18.973Z,1005.02
2022-12-03T05:19:18.964Z,1005.06
2022-12-03T05:20:18.932Z,1005.01
2022-12-03T05:21:18.922Z,1005.07
2022-12-03T05:22:18.908Z,1005.06
2022-12-03T05:23:18.936Z,1005.05
2022-12-03T05:24:18.886Z,1005.09
2022-12-03T05:25:18.873Z,1005.08
2022-12-03T05:26:18.855Z,1005.11
2022-12-03T05:27:23.483Z,1005.07
2022-12-03T05:28:19.849Z,1005.04
2022-12-03T05:29:18.822Z,1005.06
2022-12-03T05:30:18.803Z,1004.99
2022-12-03T05:31:18.889Z,1005.02
2022-12-03T05:32:18.783Z,1005.08
2022-12-03T05:33:18.785Z,1005.09
2022-12-03T05:34:18.763Z,1005.07
2022-12-03T05:35:18.740Z,1005.05
2022-12-03T05:36:18.740Z,1005.05
2022-12-03T05:37:18.718Z,1005.09
2022-12-03T05:38:18.720Z,1005.05
2022-12-03T05:39:18.691Z,1005.05
2022-12-03T05:40:18.680Z,1005.12
2022-12-03T05:41:18.667Z,1005.12
2022-12-03T05:42:18.656Z,1005.02
2022-12-03T05:43:18.664Z,1005.04
2022-12-03T05:44:20.591Z,1005.12
2022-12-03T05:45:18.628Z,1005.03
2022-12-03T05:46:18.711Z,1005.09
2022-12-03T05:47:18.614Z,1005.13
2022-12-03T05:48:18.597Z,1005.06
2022-12-03T05:49:18.566Z,1005.02
2022-12-03T05:50:18.557Z,1005.15
2022-12-03T05:51:18.539Z,1005.12
2022-12-03T05:52:18.541Z,1005.14
2022-12-03T05:53:18.521Z,1005.10
2022-12-03T05:54:18.536Z,1005.09
2022-12-03T05:55:18.532Z,1005.09
2022-12-03T05:56:18.491Z,1005.14
2022-12-03T05:57:18.463Z,1005.15
2022-12-03T05:58:18.464Z,1005.09
2022-12-03T05:59:18.463Z,1005.10
2022-12-03T06:00:18.433Z,1005.09
2022-12-03T06:01:18.443Z,1005.06
2022-12-03T06:02:18.586Z,1005.09
2022-12-03T06:03:18.598Z,1005.13
2022-12-03T06:04:18.427Z,1005.12
2022-12-03T06:05:18.396Z,1005.10
2022-12-03T06:06:18.429Z,1005.09
2022-12-03T06:07:18.441Z,1005.04
2022-12-03T06:08:18.393Z,1005.07
2022-12-03T06:09:18.390Z,1005.09
2022-12-03T06:10:18.313Z,1005.09
2022-12-03T06:11:18.303Z,1005.03
2022-12-03T06:12:18.284Z,1005.08
2022-12-03T06:13:18.266Z,1005.06
2022-12-03T06:14:18.271Z,1005.06
2022-12-03T06:15:18.239Z,1004.98
2022-12-03T06:16:18.322Z,1005.02
2022-12-03T06:17:18.230Z,1005.05
2022-12-03T06:18:18.205Z,1005.01
2022-12-03T06:19:18.551Z,1004.95
2022-12-03T06:20:18.183Z,1005.04
2022-12-03T06:21:19.074Z,1004.99
2022-12-03T06:22:18.151Z,1004.96
2022-12-03T06:23:18.136Z,1004.98
2022-12-03T06:24:18.146Z,1004.98
2022-12-03T06:25:18.109Z,1004.92
2022-12-03T06:26:18.100Z,1004.97
2022-12-03T06:27:18.092Z,1004.97
2022-12-03T06:28:18.074Z,1004.98
2022-12-03T06:29:18.079Z,1004.96
2022-12-03T06:30:18.050Z,1004.95
2022-12-03T06:31:18.121Z,1004.97
2022-12-03T06:32:18.025Z,1004.99
2022-12-03T06:33:18.012Z,1004.94
2022-12-03T06:34:18.011Z,1004.93
2022-12-03T06:35:18.005Z,1004.89
2022-12-03T06:36:22.781Z,1004.92
2022-12-03T06:37:17.963Z,1004.89
2022-12-03T06:38:17.949Z,1004.92
2022-12-03T06:39:17.955Z,1004.91
2022-12-03T06:40:17.924Z,1004.93
2022-12-03T06:41:17.921Z,1004.86
2022-12-03T06:42:17.898Z,1004.89
2022-12-03T06:43:17.889Z,1004.90
2022-12-03T06:44:17.890Z,1004.87
2022-12-03T06:45:17.857Z,1004.87
2022-12-03T06:46:17.933Z,1004.83
2022-12-03T06:47:17.845Z,1004.90
2022-12-03T06:48:17.823Z,1004.88
2022-12-03T06:49:17.825Z,1004.86
2022-12-03T06:50:17.798Z,1004.90
2022-12-03T06:51:17.806Z,1004.85
2022-12-03T06:52:17.778Z,1004.80
2022-12-03T06:53:17.761Z,1004.83
2022-12-03T06:54:17.759Z,1004.85
2022-12-03T06:55:17.733Z,1004.84
2022-12-03T06:56:21.499Z,1004.82
2022-12-03T06:57:17.712Z,1004.85
2022-12-03T06:58:17.694Z,1004.89
2022-12-03T06:59:17.699Z,1004.87
2022-12-03T07:00:17.694Z,1004.84
2022-12-03T07:01:17.691Z,1004.83
2022-12-03T07:02:17.643Z,1004.78
2022-12-03T07:03:17.669Z,1004.86
2022-12-03T07:04:17.637Z,1004.91
2022-12-03T07:05:17.616Z,1004.91
2022-12-03T07:06:17.592Z,1004.89
2022-12-03T07:07:17.604Z,1004.90
2022-12-03T07:08:17.734Z,1004.88
2022-12-03T07:09:17.575Z,1004.97
2022-12-03T07:10:17.543Z,1004.92
2022-12-03T07:11:17.532Z,1004.96
2022-12-03T07:12:17.521Z,1004.97
2022-12-03T07:13:17.506Z,1004.98
2022-12-03T07:14:17.496Z,1004.96
2022-12-03T07:15:17.492Z,1005.02
2022-12-03T07:16:17.522Z,1005.02
2022-12-03T07:17:17.454Z,1005.01
2022-12-03T07:18:17.441Z,1005.02
2022-12-03T07:19:17.433Z,1005.00
2022-12-03T07:20:17.444Z,1005.04
2022-12-03T07:21:17.403Z,1005.02
2022-12-03T07:22:17.388Z,1005.03
2022-12-03T07:23:17.397Z,1005.04
2022-12-03T07:24:17.368Z,1005.05
2022-12-03T07:25:22.917Z,1005.01
2022-12-03T07:26:18.346Z,1005.01
2022-12-03T07:27:17.326Z,1005.07
2022-12-03T07:28:17.313Z,1005.00
2022-12-03T07:29:17.305Z,1005.03
2022-12-03T07:30:17.319Z,1004.97
2022-12-03T07:31:17.348Z,1005.00
2022-12-03T07:32:17.262Z,1004.99
2022-12-03T07:33:17.250Z,1005.00
2022-12-03T07:34:17.237Z,1005.02
2022-12-03T07:35:17.247Z,1004.98
2022-12-03T07:36:17.215Z,1004.98
2022-12-03T07:37:22.697Z,1004.98
2022-12-03T07:38:17.188Z,1004.99
2022-12-03T07:39:17.194Z,1004.99
2022-12-03T07:40:17.182Z,1004.91
2022-12-03T07:41:17.149Z,1004.92
2022-12-03T07:42:17.138Z,1004.90
2022-12-03T07:43:17.128Z,1004.88
2022-12-03T07:44:17.118Z,1004.89
2022-12-03T07:45:17.115Z,1004.91
2022-12-03T07:46:17.168Z,1004.93
2022-12-03T07:47:17.071Z,1004.92
2022-12-03T07:48:17.067Z,1004.91
2022-12-03T07:49:17.047Z,1004.84
2022-12-03T07:50:17.051Z,1004.92
2022-12-03T07:51:17.021Z,1004.89
2022-12-03T07:52:17.013Z,1004.85
2022-12-03T07:53:16.995Z,1004.85
2022-12-03T07:54:16.985Z,1004.83
2022-12-03T07:55:17.007Z,1004.90
2022-12-03T07:56:16.959Z,1004.86
2022-12-03T07:57:16.949Z,1004.82
2022-12-03T07:58:16.934Z,1004.87
2022-12-03T07:59:16.920Z,1004.86
2022-12-03T08:00:16.930Z,1004.86
2022-12-03T08:01:16.950Z,1004.87
2022-12-03T08:02:21.237Z,1004.85
2022-12-03T08:03:16.871Z,1004.88
2022-12-03T08:04:16.867Z,1004.87
2022-12-03T08:05:16.864Z,1004.88
2022-12-03T08:06:16.832Z,1004.90
2022-12-03T08:07:16.821Z,1004.90
2022-12-03T08:08:16.969Z,1004.87
2022-12-03T08:09:16.795Z,1004.91
2022-12-03T08:10:16.801Z,1004.92
2022-12-03T08:11:16.797Z,1004.85
2022-12-03T08:12:16.762Z,1004.93
2022-12-03T08:13:16.773Z,1004.93
2022-12-03T08:14:16.736Z,1004.88
2022-12-03T08:15:16.736Z,1004.90
2022-12-03T08:16:16.839Z,1004.93
2022-12-03T08:17:16.691Z,1004.87
2022-12-03T08:18:16.686Z,1004.82
2022-12-03T08:19:16.675Z,1004.86
2022-12-03T08:20:16.675Z,1004.88
2022-12-03T08:21:16.652Z,1004.91
2022-12-03T08:22:16.638Z,1004.89
2022-12-03T08:23:16.640Z,1004.89
2022-12-03T08:24:16.612Z,1004.90
2022-12-03T08:25:16.612Z,1004.97
2022-12-03T08:26:16.581Z,1004.94
2022-12-03T08:27:16.601Z,1004.92
2022-12-03T08:28:16.568Z,1004.93
2022-12-03T08:29:16.546Z,1004.97
2022-12-03T08:30:16.535Z,1004.93
2022-12-03T08:31:16.593Z,1004.99
2022-12-03T08:32:16.575Z,1004.98
2022-12-03T08:33:16.502Z,1004.94
2022-12-03T08:34:16.486Z,1004.96
2022-12-03T08:35:16.473Z,1004.96
2022-12-03T08:36:16.473Z,1005.01
2022-12-03T08:37:16.443Z,1005.01
2022-12-03T08:38:16.432Z,1005.03
2022-12-03T08:39:16.426Z,1005.02
2022-12-03T08:40:16.409Z,1005.04
2022-12-03T08:41:16.411Z,1005.00
2022-12-03T08:42:16.382Z,1005.06
2022-12-03T08:43:16.387Z,1005.07
2022-12-03T08:44:16.384Z,1005.05
2022-12-03T08:45:16.343Z,1005.11
2022-12-03T08:46:16.448Z,1005.06
2022-12-03T08:47:16.320Z,1005.04
2022-12-03T08:48:16.307Z,1005.08
2022-12-03T08:49:16.297Z,1005.05
2022-12-03T08:50:16.280Z,1004.96
2022-12-03T08:51:16.283Z,1005.06
2022-12-03T08:52:16.254Z,1004.92
2022-12-03T08:53:16.244Z,1004.96
2022-12-03T08:54:16.231Z,1004.96
2022-12-03T08:55:16.216Z,1004.97
2022-12-03T08:56:16.247Z,1004.92
2022-12-03T08:57:16.191Z,1004.94
2022-12-03T08:58:16.181Z,1004.94
2022-12-03T08:59:16.184Z,1004.94
2022-12-03T09:00:16.158Z,1005.00
2022-12-03T09:01:16.249Z,1004.92
2022-12-03T09:02:16.131Z,1004.91
2022-12-03T09:03:16.122Z,1004.93
2022-12-03T09:04:16.226Z,1004.92
2022-12-03T09:05:16.094Z,1004.96
2022-12-03T09:06:16.105Z,1004.91
2022-12-03T09:07:16.090Z,1004.97
2022-12-03T09:08:16.131Z,1004.96
2022-12-03T09:09:16.044Z,1004.99
2022-12-03T09:10:16.033Z,1005.01
2022-12-03T09:11:16.030Z,1005.01
2022-12-03T09:12:16.003Z,1005.00
2022-12-03T09:13:15.991Z,1004.96
2022-12-03T09:14:18.767Z,1004.98
2022-12-03T09:15:15.984Z,1004.95
2022-12-03T09:16:16.023Z,1004.94
2022-12-03T09:17:15.942Z,1004.97
2022-12-03T09:18:15.952Z,1004.94
2022-12-03T09:19:15.923Z,1004.92
2022-12-03T09:20:15.909Z,1004.93
2022-12-03T09:21:15.905Z,1004.92
2022-12-03T09:22:15.883Z,1004.91
2022-12-03T09:23:15.866Z,1004.94
2022-12-03T09:24:15.858Z,1004.91
2022-12-03T09:25:15.839Z,1004.89
2022-12-03T09:26:15.846Z,1004.87
2022-12-03T09:27:15.815Z,1004.88
2022-12-03T09:28:15.804Z,1004.87
2022-12-03T09:29:15.800Z,1004.86
2022-12-03T09:30:15.784Z,1004.89
2022-12-03T09:31:15.931Z,1004.87
2022-12-03T09:32:18.564Z,1004.82
2022-12-03T09:33:15.740Z,1004.83
2022-12-03T09:34:15.729Z,1004.87
2022-12-03T09:35:15.718Z,1004.80
2022-12-03T09:36:15.703Z,1004.77
2022-12-03T09:37:15.706Z,1004.81
2022-12-03T09:38:15.686Z,1004.82
2022-12-03T09:39:15.667Z,1004.76
2022-12-03T09:40:15.656Z,1004.79
2022-12-03T09:41:15.639Z,1004.81
2022-12-03T09:42:15.961Z,1004.78
2022-12-03T09:43:15.625Z,1004.79
2022-12-03T09:44:18.119Z,1004.76
2022-12-03T09:45:15.586Z,1004.83
2022-12-03T09:46:15.676Z,1004.81
2022-12-03T09:47:15.595Z,1004.79
2022-12-03T09:48:15.565Z,1004.81
2022-12-03T09:49:16.299Z,1004.79
2022-12-03T09:50:15.524Z,1004.85
2022-12-03T09:51:15.511Z,1004.84
2022-12-03T09:52:15.515Z,1004.84
2022-12-03T09:53:15.487Z,1004.85
2022-12-03T09:54:15.473Z,1004.91
2022-12-03T09:55:15.466Z,1004.87
2022-12-03T09:56:15.459Z,1004.86
2022-12-03T09:57:15.485Z,1004.93
2022-12-03T09:58:15.423Z,1004.92
2022-12-03T09:59:15.409Z,1004.93
2022-12-03T10:00:15.398Z,1004.90
2022-12-03T10:01:15.456Z,1004.85
2022-12-03T10:02:15.387Z,1004.87
2022-12-03T10:03:15.381Z,1004.81
2022-12-03T10:04:15.401Z,1004.81
2022-12-03T10:05:15.334Z,1004.81
2022-12-03T10:06:15.326Z,1004.77
2022-12-03T10:07:15.323Z,1004.82
2022-12-03T10:08:15.433Z,1004.77
2022-12-03T10:09:15.285Z,1004.79
2022-12-03T10:10:15.270Z,1004.73
2022-12-03T10:11:15.256Z,1004.71
2022-12-03T10:12:15.256Z,1004.65
2022-12-03T10:13:15.229Z,1004.68
2022-12-03T10:14:15.220Z,1004.68
2022-12-03T10:15:15.208Z,1004.56
2022-12-03T10:16:15.241Z,1004.58
2022-12-03T10:17:15.261Z,1004.58
2022-12-03T10:18:15.180Z,1004.60
2022-12-03T10:19:15.177Z,1004.58
2022-12-03T10:20:15.139Z,1004.55
2022-12-03T10:21:15.128Z,1004.51
2022-12-03T10:22:15.127Z,1004.46
2022-12-03T10:23:15.101Z,1004.55
2022-12-03T10:24:15.088Z,1004.47
2022-12-03T10:25:15.075Z,1004.45
2022-12-03T10:26:15.066Z,1004.46
2022-12-03T10:27:15.063Z,1004.47
2022-12-03T10:28:15.035Z,1004.45
2022-12-03T10:29:15.021Z,1004.48
2022-12-03T10:30:15.122Z,1004.38
2022-12-03T10:31:15.094Z,1004.37
2022-12-03T10:32:15.068Z,1004.35
2022-12-03T10:33:18.878Z,1004.36
2022-12-03T10:34:14.960Z,1004.29
2022-12-03T10:35:14.967Z,1004.31
2022-12-03T10:36:14.933Z,1004.32
2022-12-03T10:37:14.965Z,1004.25
2022-12-03T10:38:14.907Z,1004.20
2022-12-03T10:39:14.891Z,1004.15
2022-12-03T10:40:14.878Z,1004.15
2022-12-03T10:41:14.869Z,1004.19
2022-12-03T10:42:14.864Z,1004.15
2022-12-03T10:43:14.844Z,1004.14
2022-12-03T10:44:14.824Z,1004.19
2022-12-03T10:45:14.811Z,1004.15
2022-12-03T10:46:14.971Z,1004.17
2022-12-03T10:47:14.906Z,1004.17
2022-12-03T10:48:14.802Z,1004.11
2022-12-03T10:49:14.765Z,1004.14
2022-12-03T10:50:14.745Z,1004.12
2022-12-03T10:51:14.752Z,1004.14
2022-12-03T10:52:14.723Z,1004.21
2022-12-03T10:53:14.723Z,1004.21
2022-12-03T10:54:14.710Z,1004.18
2022-12-03T10:55:14.685Z,1004.15
2022-12-03T10:56:14.675Z,1004.23
2022-12-03T10:57:14.744Z,1004.19
2022-12-03T10:58:14.655Z,1004.16
2022-12-03T10:59:14.633Z,1004.19
2022-12-03T11:00:14.615Z,1004.15
2022-12-03T11:01:14.713Z,1004.20
2022-12-03T11:02:14.588Z,1004.14
2022-12-03T11:03:14.647Z,1004.16
2022-12-03T11:04:14.582Z,1004.15
2022-12-03T11:05:14.548Z,1004.19
2022-12-03T11:06:14.546Z,1004.12
2022-12-03T11:07:14.544Z,1004.08
2022-12-03T11:08:14.561Z,1004.12
2022-12-03T11:09:14.499Z,1004.01
2022-12-03T11:10:14.483Z,1004.03
2022-12-03T11:11:14.470Z,1004.08
2022-12-03T11:12:14.455Z,1004.04
2022-12-03T11:13:14.460Z,1003.97
2022-12-03T11:14:18.162Z,1004.05
2022-12-03T11:15:14.422Z,1003.93
2022-12-03T11:16:14.469Z,1004.05
2022-12-03T11:17:14.392Z,1004.07
2022-12-03T11:18:14.392Z,1004.00
2022-12-03T11:19:14.370Z,1004.01
2022-12-03T11:20:19.448Z,1003.96
2022-12-03T11:21:15.388Z,1003.99
2022-12-03T11:22:15.334Z,1003.92
2022-12-03T11:23:14.352Z,1003.94
2022-12-03T11:24:14.307Z,1003.86
2022-12-03T11:25:14.293Z,1003.95
2022-12-03T11:26:18.883Z,1003.91
2022-12-03T11:27:14.268Z,1003.92
2022-12-03T11:28:14.268Z,1003.91
2022-12-03T11:29:14.241Z,1003.92
2022-12-03T11:30:14.250Z,1003.94
2022-12-03T11:31:14.296Z,1003.93
2022-12-03T11:32:14.208Z,1003.89
2022-12-03T11:33:14.208Z,1003.89
2022-12-03T11:34:14.196Z,1003.89
2022-12-03T11:35:14.167Z,1003.93
2022-12-03T11:36:14.150Z,1003.85
2022-12-03T11:37:14.135Z,1003.92
2022-12-03T11:38:14.135Z,1003.82
2022-12-03T11:39:14.147Z,1003.89
2022-12-03T11:40:14.104Z,1003.84
2022-12-03T11:41:14.089Z,1003.76
2022-12-03T11:42:14.069Z,1003.82
2022-12-03T11:43:14.076Z,1003.80
2022-12-03T11:44:14.053Z,1003.82
2022-12-03T11:45:14.035Z,1003.78
2022-12-03T11:46:14.061Z,1003.76
2022-12-03T11:47:14.010Z,1003.77
2022-12-03T11:48:14.025Z,1003.74
2022-12-03T11:49:13.986Z,1003.74
2022-12-03T11:50:13.978Z,1003.68
2022-12-03T11:51:13.958Z,1003.70
2022-12-03T11:52:13.946Z,1003.65
2022-12-03T11:53:13.930Z,1003.64
2022-12-03T11:54:13.935Z,1003.57
2022-12-03T11:55:13.925Z,1003.60
2022-12-03T11:56:13.897Z,1003.57
2022-12-03T11:57:13.879Z,1003.54
2022-12-03T11:58:13.873Z,1003.56
2022-12-03T11:59:13.905Z,1003.53
2022-12-03T12:00:13.845Z,1003.52
2022-12-03T12:01:13.833Z,1003.53
2022-12-03T12:02:13.813Z,1003.48
2022-12-03T12:03:13.970Z,1003.49
2022-12-03T12:04:13.969Z,1003.45
2022-12-03T12:05:13.780Z,1003.45